sensor_id;sensor_type;location;lat;lon;timestamp;pressure;altitude;pressure_sealevel;temperature;humidity
57948;BME280;43754;56.992;24.292;2023-04-07T00:00:21;102289.16;;;0.87;100.00
57948;BME280;43754;56.992;24.292;2023-04-07T00:02:53;102287.50;;;0.84;100.00
57948;BME280;43754;56.992;24.292;2023-04-07T00:05:25;102286.66;;;0.84;100.00
57948;BME280;43754;56.992;24.292;2023-04-07T00:07:57;102288.47;;;0.83;100.00
57948;BME280;43754;56.992;24.292;2023-04-07T00:10:29;102293.13;;;0.78;100.00
57948;BME280;43754;56.992;24.292;2023-04-07T00:13:03;102288.94;;;0.74;100.00
57948;BME280;43754;56.992;24.292;2023-04-07T00:15:35;102287.97;;;0.75;100.00
57948;BME280;43754;56.992;24.292;2023-04-07T00:18:07;102279.25;;;0.75;100.00
57948;BME280;43754;56.992;24.292;2023-04-07T00:20:39;102285.34;;;0.75;100.00
57948;BME280;43754;56.992;24.292;2023-04-07T00:23:11;102284.59;;;0.73;100.00
57948;BME280;43754;56.992;24.292;2023-04-07T00:25:43;102285.75;;;0.68;100.00
57948;BME280;43754;56.992;24.292;2023-04-07T00:28:16;102283.19;;;0.66;100.00
57948;BME280;43754;56.992;24.292;2023-04-07T00:30:48;102285.06;;;0.64;100.00
57948;BME280;43754;56.992;24.292;2023-04-07T00:33:21;102284.88;;;0.67;100.00
57948;BME280;43754;56.992;24.292;2023-04-07T00:35:53;102277.84;;;0.68;100.00
57948;BME280;43754;56.992;24.292;2023-04-07T00:38:25;102284.75;;;0.70;100.00
57948;BME280;43754;56.992;24.292;2023-04-07T00:40:57;102282.97;;;0.71;100.00
57948;BME280;43754;56.992;24.292;2023-04-07T00:43:34;102279.47;;;0.70;100.00
57948;BME280;43754;56.992;24.292;2023-04-07T00:46:06;102278.06;;;0.63;100.00
57948;BME280;43754;56.992;24.292;2023-04-07T00:48:38;102283.34;;;0.63;100.00
57948;BME280;43754;56.992;24.292;2023-04-07T00:51:10;102280.00;;;0.60;100.00
57948;BME280;43754;56.992;24.292;2023-04-07T00:53:43;102276.50;;;0.59;100.00
57948;BME280;43754;56.992;24.292;2023-04-07T00:56:15;102283.44;;;0.62;100.00
57948;BME280;43754;56.992;24.292;2023-04-07T00:58:48;102280.81;;;0.62;100.00
57948;BME280;43754;56.992;24.292;2023-04-07T01:01:22;102283.50;;;0.60;100.00
57948;BME280;43754;56.992;24.292;2023-04-07T01:04:01;102288.84;;;0.59;100.00
57948;BME280;43754;56.992;24.292;2023-04-07T01:06:39;102280.88;;;0.60;100.00
57948;BME280;43754;56.992;24.292;2023-04-07T01:09:18;102278.16;;;0.62;100.00
57948;BME280;43754;56.992;24.292;2023-04-07T01:11:57;102279.94;;;0.61;100.00
57948;BME280;43754;56.992;24.292;2023-04-07T01:14:33;102284.53;;;0.58;100.00
57948;BME280;43754;56.992;24.292;2023-04-07T01:17:26;102286.53;;;0.53;100.00
57948;BME280;43754;56.992;24.292;2023-04-07T01:20:02;102287.63;;;0.49;100.00
57948;BME280;43754;56.992;24.292;2023-04-07T01:22:42;102285.16;;;0.45;100.00
57948;BME280;43754;56.992;24.292;2023-04-07T01:25:26;102288.56;;;0.47;100.00
57948;BME280;43754;56.992;24.292;2023-04-07T01:31:15;102281.50;;;0.48;100.00
57948;BME280;43754;56.992;24.292;2023-04-07T01:33:48;102275.44;;;0.46;100.00
57948;BME280;43754;56.992;24.292;2023-04-07T01:36:22;102283.34;;;0.46;100.00
57948;BME280;43754;56.992;24.292;2023-04-07T01:38:54;102284.19;;;0.46;100.00
57948;BME280;43754;56.992;24.292;2023-04-07T01:41:27;102275.59;;;0.43;100.00
57948;BME280;43754;56.992;24.292;2023-04-07T01:44:00;102272.88;;;0.44;100.00
57948;BME280;43754;56.992;24.292;2023-04-07T01:46:35;102276.38;;;0.45;100.00
57948;BME280;43754;56.992;24.292;2023-04-07T01:49:07;102272.03;;;0.44;100.00
57948;BME280;43754;56.992;24.292;2023-04-07T01:51:40;102279.03;;;0.45;100.00
57948;BME280;43754;56.992;24.292;2023-04-07T01:54:13;102272.94;;;0.43;100.00
57948;BME280;43754;56.992;24.292;2023-04-07T01:56:45;102279.88;;;0.45;100.00
57948;BME280;43754;56.992;24.292;2023-04-07T01:59:17;102275.53;;;0.44;100.00
57948;BME280;43754;56.992;24.292;2023-04-07T02:01:51;102278.84;;;0.48;100.00
57948;BME280;43754;56.992;24.292;2023-04-07T02:04:28;102280.56;;;0.49;100.00
57948;BME280;43754;56.992;24.292;2023-04-07T02:07:09;102275.28;;;0.49;100.00
57948;BME280;43754;56.992;24.292;2023-04-07T02:09:55;102285.91;;;0.47;100.00
57948;BME280;43754;56.992;24.292;2023-04-07T02:12:29;102283.44;;;0.44;100.00
57948;BME280;43754;56.992;24.292;2023-04-07T02:15:11;102293.13;;;0.44;100.00
57948;BME280;43754;56.992;24.292;2023-04-07T02:17:51;102283.66;;;0.40;100.00
57948;BME280;43754;56.992;24.292;2023-04-07T02:20:24;102284.59;;;0.39;100.00
57948;BME280;43754;56.992;24.292;2023-04-07T02:22:56;102288.03;;;0.41;100.00
57948;BME280;43754;56.992;24.292;2023-04-07T02:25:30;102285.28;;;0.42;100.00
57948;BME280;43754;56.992;24.292;2023-04-07T02:28:03;102284.38;;;0.43;100.00
57948;BME280;43754;56.992;24.292;2023-04-07T02:30:35;102286.94;;;0.45;100.00
57948;BME280;43754;56.992;24.292;2023-04-07T02:33:09;102279.03;;;0.45;100.00
57948;BME280;43754;56.992;24.292;2023-04-07T02:35:41;102279.78;;;0.47;100.00
57948;BME280;43754;56.992;24.292;2023-04-07T02:38:13;102280.56;;;0.49;100.00
57948;BME280;43754;56.992;24.292;2023-04-07T02:40:45;102280.56;;;0.49;100.00
57948;BME280;43754;56.992;24.292;2023-04-07T02:43:18;102286.06;;;0.44;100.00
57948;BME280;43754;56.992;24.292;2023-04-07T02:45:51;102278.91;;;0.46;100.00
57948;BME280;43754;56.992;24.292;2023-04-07T02:48:25;102278.22;;;0.43;100.00
57948;BME280;43754;56.992;24.292;2023-04-07T02:50:57;102280.00;;;0.42;100.00
57948;BME280;43754;56.992;24.292;2023-04-07T02:53:29;102285.22;;;0.44;100.00
57948;BME280;43754;56.992;24.292;2023-04-07T02:56:01;102279.03;;;0.45;100.00
57948;BME280;43754;56.992;24.292;2023-04-07T02:58:33;102280.88;;;0.43;100.00
57948;BME280;43754;56.992;24.292;2023-04-07T03:01:05;102273.06;;;0.41;100.00
57948;BME280;43754;56.992;24.292;2023-04-07T03:03:40;102272.78;;;0.46;100.00
57948;BME280;43754;56.992;24.292;2023-04-07T03:06:20;102278.06;;;0.46;100.00
57948;BME280;43754;56.992;24.292;2023-04-07T03:09:10;102277.84;;;0.51;100.00
57948;BME280;43754;56.992;24.292;2023-04-07T03:11:43;102285.91;;;0.47;100.00
57948;BME280;43754;56.992;24.292;2023-04-07T03:14:15;102278.00;;;0.47;100.00
57948;BME280;43754;56.992;24.292;2023-04-07T03:16:52;102278.84;;;0.48;100.00
57948;BME280;43754;56.992;24.292;2023-04-07T03:19:27;102281.44;;;0.50;100.00
57948;BME280;43754;56.992;24.292;2023-04-07T03:21:59;102279.88;;;0.45;100.00
57948;BME280;43754;56.992;24.292;2023-04-07T03:24:31;102282.56;;;0.44;100.00
57948;BME280;43754;56.992;24.292;2023-04-07T03:27:03;102283.44;;;0.44;100.00
57948;BME280;43754;56.992;24.292;2023-04-07T03:29:44;102283.44;;;0.44;100.00
57948;BME280;43754;56.992;24.292;2023-04-07T03:32:19;102283.44;;;0.44;100.00
57948;BME280;43754;56.992;24.292;2023-04-07T03:34:52;102290.34;;;0.47;100.00
57948;BME280;43754;56.992;24.292;2023-04-07T03:37:25;102293.06;;;0.45;100.00
57948;BME280;43754;56.992;24.292;2023-04-07T03:39:58;102291.25;;;0.46;100.00
57948;BME280;43754;56.992;24.292;2023-04-07T03:42:34;102294.69;;;0.48;100.00
57948;BME280;43754;56.992;24.292;2023-04-07T03:45:10;102296.31;;;0.51;100.00
57948;BME280;43754;56.992;24.292;2023-04-07T03:47:46;102295.31;;;0.53;100.00
57948;BME280;43754;56.992;24.292;2023-04-07T03:50:21;102293.19;;;0.60;100.00
57948;BME280;43754;56.992;24.292;2023-04-07T03:53:13;102284.28;;;0.62;100.00
57948;BME280;43754;56.992;24.292;2023-04-07T03:55:47;102288.38;;;0.68;100.00
57948;BME280;43754;56.992;24.292;2023-04-07T03:58:29;102290.16;;;0.67;100.00
57948;BME280;43754;56.992;24.292;2023-04-07T04:01:01;102292.66;;;0.70;100.00
57948;BME280;43754;56.992;24.292;2023-04-07T04:03:34;102283.72;;;0.73;100.00
57948;BME280;43754;56.992;24.292;2023-04-07T04:06:21;102283.25;;;0.82;100.00
57948;BME280;43754;56.992;24.292;2023-04-07T04:08:54;102292.03;;;0.82;100.00
57948;BME280;43754;56.992;24.292;2023-04-07T04:11:28;102291.81;;;0.87;100.00
57948;BME280;43754;56.992;24.292;2023-04-07T04:14:06;102287.97;;;0.92;100.00
57948;BME280;43754;56.992;24.292;2023-04-07T04:16:40;102289.97;;;1.05;100.00
57948;BME280;43754;56.992;24.292;2023-04-07T04:19:26;102284.38;;;1.11;100.00
57948;BME280;43754;56.992;24.292;2023-04-07T04:22:01;102285.84;;;1.16;100.00
57948;BME280;43754;56.992;24.292;2023-04-07T04:24:39;102288.06;;;1.24;100.00
57948;BME280;43754;56.992;24.292;2023-04-07T04:27:12;102294.72;;;1.31;100.00
57948;BME280;43754;56.992;24.292;2023-04-07T04:29:46;102292.75;;;1.34;100.00
57948;BME280;43754;56.992;24.292;2023-04-07T04:32:20;102293.19;;;1.43;100.00
57948;BME280;43754;56.992;24.292;2023-04-07T04:34:52;102289.38;;;1.48;100.00
57948;BME280;43754;56.992;24.292;2023-04-07T04:37:26;102293.72;;;1.49;100.00
57948;BME280;43754;56.992;24.292;2023-04-07T04:39:59;102296.00;;;1.55;100.00
57948;BME280;43754;56.992;24.292;2023-04-07T04:42:31;102306.88;;;1.66;100.00
57948;BME280;43754;56.992;24.292;2023-04-07T04:45:06;102306.00;;;1.81;100.00
57948;BME280;43754;56.992;24.292;2023-04-07T04:47:39;102311.66;;;1.91;100.00
57948;BME280;43754;56.992;24.292;2023-04-07T04:50:12;102311.56;;;2.08;100.00
57948;BME280;43754;56.992;24.292;2023-04-07T04:52:47;102306.97;;;2.26;100.00
57948;BME280;43754;56.992;24.292;2023-04-07T04:55:26;102307.03;;;2.40;100.00
57948;BME280;43754;56.992;24.292;2023-04-07T04:57:58;102309.19;;;2.63;100.00
57948;BME280;43754;56.992;24.292;2023-04-07T05:00:52;102302.53;;;2.86;100.00
57948;BME280;43754;56.992;24.292;2023-04-07T05:03:34;102305.09;;;3.02;100.00
57948;BME280;43754;56.992;24.292;2023-04-07T05:06:10;102309.94;;;3.23;100.00
57948;BME280;43754;56.992;24.292;2023-04-07T05:08:46;102301.16;;;3.37;100.00
57948;BME280;43754;56.992;24.292;2023-04-07T05:11:20;102304.06;;;3.47;100.00
57948;BME280;43754;56.992;24.292;2023-04-07T05:13:55;102307.84;;;3.57;100.00
57948;BME280;43754;56.992;24.292;2023-04-07T05:16:28;102306.69;;;3.75;100.00
57948;BME280;43754;56.992;24.292;2023-04-07T05:19:00;102306.53;;;4.05;100.00
57948;BME280;43754;56.992;24.292;2023-04-07T05:21:32;102311.28;;;4.39;100.00
57948;BME280;43754;56.992;24.292;2023-04-07T05:24:08;102297.88;;;4.55;100.00
57948;BME280;43754;56.992;24.292;2023-04-07T05:26:41;102301.81;;;4.75;100.00
57948;BME280;43754;56.992;24.292;2023-04-07T05:29:13;102299.38;;;4.97;100.00
57948;BME280;43754;56.992;24.292;2023-04-07T05:31:45;102306.06;;;5.28;100.00
57948;BME280;43754;56.992;24.292;2023-04-07T05:34:19;102294.00;;;5.60;100.00
57948;BME280;43754;56.992;24.292;2023-04-07T05:36:56;102294.91;;;5.84;100.00
57948;BME280;43754;56.992;24.292;2023-04-07T05:39:30;102294.50;;;6.14;100.00
57948;BME280;43754;56.992;24.292;2023-04-07T05:42:02;102298.00;;;6.38;100.00
57948;BME280;43754;56.992;24.292;2023-04-07T05:44:34;102295.81;;;6.67;100.00
57948;BME280;43754;56.992;24.292;2023-04-07T05:47:07;102287.00;;;6.89;100.00
57948;BME280;43754;56.992;24.292;2023-04-07T05:49:40;102297.81;;;7.10;100.00
57948;BME280;43754;56.992;24.292;2023-04-07T05:52:17;102291.66;;;7.09;100.00
57948;BME280;43754;56.992;24.292;2023-04-07T05:54:58;102294.81;;;7.25;100.00
57948;BME280;43754;56.992;24.292;2023-04-07T05:57:33;102290.19;;;7.61;100.00
57948;BME280;43754;56.992;24.292;2023-04-07T06:00:08;102295.38;;;7.73;100.00
57948;BME280;43754;56.992;24.292;2023-04-07T06:02:44;102290.22;;;8.04;100.00
57948;BME280;43754;56.992;24.292;2023-04-07T06:05:21;102294.78;;;8.24;100.00
57948;BME280;43754;56.992;24.292;2023-04-07T06:07:57;102292.75;;;8.48;100.00
57948;BME280;43754;56.992;24.292;2023-04-07T06:10:32;102293.63;;;8.49;100.00
57948;BME280;43754;56.992;24.292;2023-04-07T06:13:04;102285.28;;;8.63;100.00
57948;BME280;43754;56.992;24.292;2023-04-07T06:15:36;102285.22;;;8.74;100.00
57948;BME280;43754;56.992;24.292;2023-04-07T06:18:08;102279.16;;;8.93;100.00
57948;BME280;43754;56.992;24.292;2023-04-07T06:20:41;102280.06;;;9.03;100.00
57948;BME280;43754;56.992;24.292;2023-04-07T06:23:13;102285.75;;;9.09;100.00
57948;BME280;43754;56.992;24.292;2023-04-07T06:25:46;102275.22;;;9.17;100.00
57948;BME280;43754;56.992;24.292;2023-04-07T06:28:22;102284.91;;;9.18;100.00
57948;BME280;43754;56.992;24.292;2023-04-07T06:30:54;102277.91;;;9.17;100.00
57948;BME280;43754;56.992;24.292;2023-04-07T06:33:29;102270.84;;;9.16;100.00
57948;BME280;43754;56.992;24.292;2023-04-07T06:36:01;102272.38;;;9.19;100.00
57948;BME280;43754;56.992;24.292;2023-04-07T06:38:33;102271.47;;;9.30;100.00
57948;BME280;43754;56.992;24.292;2023-04-07T06:41:07;102277.91;;;9.57;100.00
57948;BME280;43754;56.992;24.292;2023-04-07T06:43:42;102277.28;;;9.84;100.00
57948;BME280;43754;56.992;24.292;2023-04-07T06:46:14;102284.50;;;10.03;100.00
57948;BME280;43754;56.992;24.292;2023-04-07T06:48:46;102282.53;;;10.14;100.00
57948;BME280;43754;56.992;24.292;2023-04-07T06:51:18;102279.34;;;10.21;100.00
57948;BME280;43754;56.992;24.292;2023-04-07T06:53:50;102279.44;;;10.09;99.40
57948;BME280;43754;56.992;24.292;2023-04-07T06:56:24;102276.63;;;10.01;100.00
57948;BME280;43754;56.992;24.292;2023-04-07T06:58:56;102282.81;;;10.11;98.78
57948;BME280;43754;56.992;24.292;2023-04-07T07:01:28;102277.16;;;10.14;96.34
57948;BME280;43754;56.992;24.292;2023-04-07T07:04:01;102281.28;;;10.19;98.52
57948;BME280;43754;56.992;24.292;2023-04-07T07:06:33;102274.41;;;10.26;96.73
57948;BME280;43754;56.992;24.292;2023-04-07T07:09:05;102273.56;;;10.25;96.75
57948;BME280;43754;56.992;24.292;2023-04-07T07:11:38;102287.41;;;10.30;99.02
57948;BME280;43754;56.992;24.292;2023-04-07T07:14:10;102279.34;;;10.40;96.72
57948;BME280;43754;56.992;24.292;2023-04-07T07:16:42;102273.44;;;10.55;96.95
57948;BME280;43754;56.992;24.292;2023-04-07T07:19:14;102271.31;;;10.59;96.53
57948;BME280;43754;56.992;24.292;2023-04-07T07:21:46;102271.28;;;10.49;96.67
57948;BME280;43754;56.992;24.292;2023-04-07T07:24:18;102269.84;;;10.65;96.14
57948;BME280;43754;56.992;24.292;2023-04-07T07:26:52;102266.72;;;10.88;94.89
57948;BME280;43754;56.992;24.292;2023-04-07T07:29:24;102267.41;;;10.90;92.42
57948;BME280;43754;56.992;24.292;2023-04-07T07:31:56;102269.94;;;11.01;93.55
57948;BME280;43754;56.992;24.292;2023-04-07T07:34:28;102266.91;;;11.24;93.09
57948;BME280;43754;56.992;24.292;2023-04-07T07:37:00;102263.13;;;11.44;91.40
57948;BME280;43754;56.992;24.292;2023-04-07T07:39:32;102269.28;;;11.64;89.80
57948;BME280;43754;56.992;24.292;2023-04-07T07:42:05;102263.03;;;11.73;89.54
57948;BME280;43754;56.992;24.292;2023-04-07T07:44:37;102258.69;;;11.89;89.07
57948;BME280;43754;56.992;24.292;2023-04-07T07:47:09;102256.81;;;11.90;86.06
57948;BME280;43754;56.992;24.292;2023-04-07T07:49:43;102257.31;;;11.85;86.62
57948;BME280;43754;56.992;24.292;2023-04-07T07:52:15;102261.75;;;11.94;86.92
57948;BME280;43754;56.992;24.292;2023-04-07T07:54:47;102256.16;;;12.23;87.12
57948;BME280;43754;56.992;24.292;2023-04-07T07:57:20;102264.75;;;12.44;87.89
57948;BME280;43754;56.992;24.292;2023-04-07T07:59:52;102258.22;;;12.65;84.78
57948;BME280;43754;56.992;24.292;2023-04-07T08:02:24;102256.91;;;12.69;83.72
57948;BME280;43754;56.992;24.292;2023-04-07T08:05:01;102253.44;;;12.76;79.54
57948;BME280;43754;56.992;24.292;2023-04-07T08:07:33;102254.56;;;13.00;78.28
57948;BME280;43754;56.992;24.292;2023-04-07T08:10:07;102253.56;;;13.18;77.47
57948;BME280;43754;56.992;24.292;2023-04-07T08:12:40;102254.06;;;13.22;77.81
57948;BME280;43754;56.992;24.292;2023-04-07T08:15:12;102261.00;;;13.07;75.84
57948;BME280;43754;56.992;24.292;2023-04-07T08:17:44;102248.69;;;13.22;76.64
57948;BME280;43754;56.992;24.292;2023-04-07T08:20:17;102256.16;;;13.36;75.39
57948;BME280;43754;56.992;24.292;2023-04-07T08:22:49;102260.31;;;13.56;76.61
57948;BME280;43754;56.992;24.292;2023-04-07T08:25:21;102258.84;;;13.86;74.57
57948;BME280;43754;56.992;24.292;2023-04-07T08:27:54;102254.28;;;13.78;73.19
57948;BME280;43754;56.992;24.292;2023-04-07T08:30:26;102259.41;;;13.90;72.48
57948;BME280;43754;56.992;24.292;2023-04-07T08:32:58;102254.31;;;13.87;70.59
57948;BME280;43754;56.992;24.292;2023-04-07T08:35:30;102257.75;;;14.21;71.33
57948;BME280;43754;56.992;24.292;2023-04-07T08:38:02;102256.13;;;14.52;69.41
57948;BME280;43754;56.992;24.292;2023-04-07T08:40:34;102250.75;;;14.60;66.02
57948;BME280;43754;56.992;24.292;2023-04-07T08:43:09;102235.69;;;14.74;66.41
57948;BME280;43754;56.992;24.292;2023-04-07T08:45:43;102235.03;;;14.72;64.09
57948;BME280;43754;56.992;24.292;2023-04-07T08:48:17;102235.69;;;14.74;62.65
57948;BME280;43754;56.992;24.292;2023-04-07T08:50:50;102252.72;;;14.83;61.67
57948;BME280;43754;56.992;24.292;2023-04-07T08:53:27;102248.03;;;14.68;61.63
57948;BME280;43754;56.992;24.292;2023-04-07T08:56:03;102244.66;;;14.66;63.13
57948;BME280;43754;56.992;24.292;2023-04-07T08:58:38;102240.41;;;14.88;62.70
57948;BME280;43754;56.992;24.292;2023-04-07T09:01:19;102247.00;;;14.86;61.91
57948;BME280;43754;56.992;24.292;2023-04-07T09:03:52;102241.69;;;15.16;60.95
57948;BME280;43754;56.992;24.292;2023-04-07T09:06:24;102240.47;;;15.27;58.86
57948;BME280;43754;56.992;24.292;2023-04-07T09:08:58;102243.25;;;15.11;58.80
57948;BME280;43754;56.992;24.292;2023-04-07T09:11:34;102241.31;;;15.19;59.36
57948;BME280;43754;56.992;24.292;2023-04-07T09:14:06;102251.63;;;15.16;58.25
57948;BME280;43754;56.992;24.292;2023-04-07T09:16:40;102242.16;;;15.28;58.91
57948;BME280;43754;56.992;24.292;2023-04-07T09:19:12;102239.69;;;15.49;57.70
57948;BME280;43754;56.992;24.292;2023-04-07T09:21:48;102237.00;;;15.57;57.07
57948;BME280;43754;56.992;24.292;2023-04-07T09:24:22;102231.66;;;15.33;57.91
57948;BME280;43754;56.992;24.292;2023-04-07T09:27:13;102240.91;;;15.55;57.08
57948;BME280;43754;56.992;24.292;2023-04-07T09:29:48;102241.13;;;15.76;57.52
57948;BME280;43754;56.992;24.292;2023-04-07T09:32:35;102238.06;;;16.10;58.21
57948;BME280;43754;56.992;24.292;2023-04-07T09:35:09;102245.31;;;16.32;56.08
57948;BME280;43754;56.992;24.292;2023-04-07T09:37:41;102245.53;;;16.45;56.59
57948;BME280;43754;56.992;24.292;2023-04-07T09:40:24;102237.69;;;16.59;55.18
57948;BME280;43754;56.992;24.292;2023-04-07T09:42:58;102241.28;;;16.51;55.32
57948;BME280;43754;56.992;24.292;2023-04-07T09:45:31;102244.66;;;16.53;54.68
57948;BME280;43754;56.992;24.292;2023-04-07T09:48:18;102233.00;;;16.52;54.39
57948;BME280;43754;56.992;24.292;2023-04-07T09:51:04;102231.00;;;16.69;53.42
57948;BME280;43754;56.992;24.292;2023-04-07T09:53:44;102228.13;;;16.85;52.30
57948;BME280;43754;56.992;24.292;2023-04-07T09:56:19;102225.53;;;17.07;54.21
57948;BME280;43754;56.992;24.292;2023-04-07T09:58:53;102231.06;;;17.28;52.27
57948;BME280;43754;56.992;24.292;2023-04-07T10:01:25;102239.44;;;17.18;51.38
57948;BME280;43754;56.992;24.292;2023-04-07T10:03:58;102234.31;;;17.09;50.42
57948;BME280;43754;56.992;24.292;2023-04-07T10:06:31;102240.19;;;17.12;50.82
57948;BME280;43754;56.992;24.292;2023-04-07T10:09:03;102223.84;;;17.06;49.45
57948;BME280;43754;56.992;24.292;2023-04-07T10:11:35;102230.56;;;16.95;50.52
57948;BME280;43754;56.992;24.292;2023-04-07T10:14:08;102237.03;;;17.23;50.21
57948;BME280;43754;56.992;24.292;2023-04-07T10:16:41;102229.34;;;17.12;49.18
57948;BME280;43754;56.992;24.292;2023-04-07T10:19:15;102226.63;;;17.12;48.43
57948;BME280;43754;56.992;24.292;2023-04-07T10:21:50;102225.06;;;17.32;49.17
57948;BME280;43754;56.992;24.292;2023-04-07T10:24:36;102227.69;;;17.11;48.55
57948;BME280;43754;56.992;24.292;2023-04-07T10:27:16;102218.34;;;17.14;50.02
57948;BME280;43754;56.992;24.292;2023-04-07T10:29:51;102216.16;;;17.38;50.00
57948;BME280;43754;56.992;24.292;2023-04-07T10:32:23;102213.56;;;17.60;49.06
57948;BME280;43754;56.992;24.292;2023-04-07T10:35:00;102220.34;;;17.70;47.39
57948;BME280;43754;56.992;24.292;2023-04-07T10:37:32;102220.56;;;17.69;49.31
57948;BME280;43754;56.992;24.292;2023-04-07T10:40:27;102214.66;;;17.65;47.27
57948;BME280;43754;56.992;24.292;2023-04-07T10:42:59;102214.78;;;17.78;47.16
57948;BME280;43754;56.992;24.292;2023-04-07T10:45:53;102217.00;;;17.68;47.19
57948;BME280;43754;56.992;24.292;2023-04-07T10:48:27;102214.16;;;17.76;46.36
57948;BME280;43754;56.992;24.292;2023-04-07T10:51:15;102210.63;;;17.46;46.46
57948;BME280;43754;56.992;24.292;2023-04-07T10:54:21;102210.28;;;17.64;46.45
57948;BME280;43754;56.992;24.292;2023-04-07T10:57:12;102214.38;;;17.45;47.48
57948;BME280;43754;56.992;24.292;2023-04-07T11:02:53;102192.28;;;17.78;46.91
57948;BME280;43754;56.992;24.292;2023-04-07T11:05:25;102199.34;;;17.93;46.51
57948;BME280;43754;56.992;24.292;2023-04-07T11:07:59;102208.91;;;18.11;45.65
57948;BME280;43754;56.992;24.292;2023-04-07T11:10:33;102209.38;;;17.78;46.18
57948;BME280;43754;56.992;24.292;2023-04-07T11:13:07;102206.09;;;17.83;46.31
57948;BME280;43754;56.992;24.292;2023-04-07T11:15:39;102205.78;;;17.92;45.62
57948;BME280;43754;56.992;24.292;2023-04-07T11:18:16;102202.50;;;17.97;46.14
57948;BME280;43754;56.992;24.292;2023-04-07T11:20:51;102202.06;;;18.15;44.99
57948;BME280;43754;56.992;24.292;2023-04-07T11:23:25;102193.47;;;18.32;45.26
57948;BME280;43754;56.992;24.292;2023-04-07T11:26:01;102199.97;;;18.38;45.74
57948;BME280;43754;56.992;24.292;2023-04-07T11:28:34;102202.25;;;18.56;44.92
57948;BME280;43754;56.992;24.292;2023-04-07T11:31:08;102207.13;;;18.24;44.21
57948;BME280;43754;56.992;24.292;2023-04-07T11:33:41;102206.69;;;18.21;44.70
57948;BME280;43754;56.992;24.292;2023-04-07T11:36:25;102205.75;;;18.28;44.74
57948;BME280;43754;56.992;24.292;2023-04-07T11:38:59;102206.63;;;18.35;45.36
57948;BME280;43754;56.992;24.292;2023-04-07T11:41:32;102198.19;;;18.52;44.47
57948;BME280;43754;56.992;24.292;2023-04-07T11:44:05;102193.09;;;18.63;44.98
57948;BME280;43754;56.992;24.292;2023-04-07T11:46:51;102200.91;;;18.73;44.20
57948;BME280;43754;56.992;24.292;2023-04-07T11:49:25;102198.78;;;18.68;44.51
57948;BME280;43754;56.992;24.292;2023-04-07T11:52:03;102195.66;;;18.71;43.96
57948;BME280;43754;56.992;24.292;2023-04-07T11:54:42;102201.22;;;18.57;43.47
57948;BME280;43754;56.992;24.292;2023-04-07T11:57:23;102195.50;;;18.52;43.11
57948;BME280;43754;56.992;24.292;2023-04-07T12:00:04;102195.25;;;18.74;43.17
57948;BME280;43754;56.992;24.292;2023-04-07T12:02:36;102197.38;;;18.79;43.48
57948;BME280;43754;56.992;24.292;2023-04-07T12:05:09;102196.75;;;18.77;43.29
57948;BME280;43754;56.992;24.292;2023-04-07T12:07:51;102188.63;;;18.83;42.63
57948;BME280;43754;56.992;24.292;2023-04-07T12:10:25;102194.06;;;18.83;44.19
57948;BME280;43754;56.992;24.292;2023-04-07T12:12:57;102186.31;;;18.74;43.79
57948;BME280;43754;56.992;24.292;2023-04-07T12:15:30;102194.81;;;18.71;44.01
57948;BME280;43754;56.992;24.292;2023-04-07T12:18:02;102188.09;;;18.67;43.12
57948;BME280;43754;56.992;24.292;2023-04-07T12:20:34;102190.97;;;18.59;43.24
57948;BME280;43754;56.992;24.292;2023-04-07T12:23:08;102187.63;;;18.35;42.69
57948;BME280;43754;56.992;24.292;2023-04-07T12:25:41;102180.78;;;18.39;43.64
57948;BME280;43754;56.992;24.292;2023-04-07T12:28:13;102188.78;;;18.48;42.93
57948;BME280;43754;56.992;24.292;2023-04-07T12:30:46;102184.84;;;18.29;44.56
57948;BME280;43754;56.992;24.292;2023-04-07T12:33:18;102189.75;;;18.40;44.04
57948;BME280;43754;56.992;24.292;2023-04-07T12:35:50;102180.63;;;18.48;43.33
57948;BME280;43754;56.992;24.292;2023-04-07T12:38:22;102181.91;;;18.52;43.08
57948;BME280;43754;56.992;24.292;2023-04-07T12:40:56;102175.53;;;18.59;42.70
57948;BME280;43754;56.992;24.292;2023-04-07T12:43:34;102175.38;;;18.67;43.72
57948;BME280;43754;56.992;24.292;2023-04-07T12:46:06;102174.31;;;18.62;43.81
57948;BME280;43754;56.992;24.292;2023-04-07T12:48:38;102171.81;;;18.67;43.74
57948;BME280;43754;56.992;24.292;2023-04-07T12:51:10;102169.50;;;18.64;43.22
57948;BME280;43754;56.992;24.292;2023-04-07T12:53:42;102176.22;;;18.68;43.58
57948;BME280;43754;56.992;24.292;2023-04-07T12:56:15;102170.06;;;18.53;43.31
57948;BME280;43754;56.992;24.292;2023-04-07T12:58:47;102175.25;;;18.54;43.44
57948;BME280;43754;56.992;24.292;2023-04-07T13:01:19;102186.97;;;18.55;43.76
57948;BME280;43754;56.992;24.292;2023-04-07T13:03:51;102180.50;;;18.56;43.24
57948;BME280;43754;56.992;24.292;2023-04-07T13:06:24;102180.63;;;18.69;43.08
57948;BME280;43754;56.992;24.292;2023-04-07T13:08:56;102172.56;;;18.82;43.82
57948;BME280;43754;56.992;24.292;2023-04-07T13:11:30;102172.34;;;18.83;43.08
57948;BME280;43754;56.992;24.292;2023-04-07T13:14:02;102175.44;;;18.74;42.92
57948;BME280;43754;56.992;24.292;2023-04-07T13:16:35;102172.13;;;18.78;43.22
57948;BME280;43754;56.992;24.292;2023-04-07T13:19:07;102174.31;;;18.62;43.08
57948;BME280;43754;56.992;24.292;2023-04-07T13:21:40;102172.63;;;18.61;43.39
57948;BME280;43754;56.992;24.292;2023-04-07T13:24:18;102163.38;;;18.55;42.82